sensor_id;sensor_type;location;lat;lon;timestamp;P1;durP1;ratioP1;P2;durP2;ratioP2
9094;SDS011;4583;49.796;9.902;2023-08-06T00:06:51;5.00;;;3.20;;
9094;SDS011;4583;49.796;9.902;2023-08-06T00:16:53;5.57;;;2.90;;
9094;SDS011;4583;49.796;9.902;2023-08-06T00:26:55;4.53;;;3.10;;
9094;SDS011;4583;49.796;9.902;2023-08-06T00:36:57;3.20;;;2.40;;
9094;SDS011;4583;49.796;9.902;2023-08-06T00:46:58;5.73;;;2.40;;
9094;SDS011;4583;49.796;9.902;2023-08-06T00:57:01;2.20;;;2.00;;
9094;SDS011;4583;49.796;9.902;2023-08-06T01:17:36;3.27;;;2.00;;
9094;SDS011;4583;49.796;9.902;2023-08-06T01:27:48;6.13;;;3.00;;
9094;SDS011;4583;49.796;9.902;2023-08-06T01:37:50;5.03;;;2.80;;
9094;SDS011;4583;49.796;9.902;2023-08-06T01:47:52;2.57;;;2.10;;
9094;SDS011;4583;49.796;9.902;2023-08-06T01:57:54;3.13;;;2.20;;
9094;SDS011;4583;49.796;9.902;2023-08-06T02:07:56;2.40;;;2.10;;
9094;SDS011;4583;49.796;9.902;2023-08-06T02:17:58;2.70;;;2.10;;
9094;SDS011;4583;49.796;9.902;2023-08-06T02:28:00;2.60;;;2.00;;
9094;SDS011;4583;49.796;9.902;2023-08-06T02:38:01;5.60;;;2.37;;
9094;SDS011;4583;49.796;9.902;2023-08-06T02:48:03;5.30;;;2.10;;
9094;SDS011;4583;49.796;9.902;2023-08-06T02:58:05;5.33;;;2.20;;
9094;SDS011;4583;49.796;9.902;2023-08-06T03:08:07;2.30;;;2.10;;
9094;SDS011;4583;49.796;9.902;2023-08-06T03:18:09;3.63;;;2.20;;
9094;SDS011;4583;49.796;9.902;2023-08-06T03:28:10;2.40;;;2.20;;
9094;SDS011;4583;49.796;9.902;2023-08-06T03:38:12;3.20;;;2.40;;
9094;SDS011;4583;49.796;9.902;2023-08-06T03:48:14;3.20;;;2.90;;
9094;SDS011;4583;49.796;9.902;2023-08-06T03:58:16;3.23;;;2.40;;
9094;SDS011;4583;49.796;9.902;2023-08-06T04:08:17;2.50;;;2.30;;
9094;SDS011;4583;49.796;9.902;2023-08-06T04:18:19;2.83;;;2.30;;
9094;SDS011;4583;49.796;9.902;2023-08-06T04:28:21;4.53;;;2.80;;
9094;SDS011;4583;49.796;9.902;2023-08-06T04:38:23;5.83;;;3.10;;
9094;SDS011;4583;49.796;9.902;2023-08-06T04:48:28;3.00;;;2.40;;
9094;SDS011;4583;49.796;9.902;2023-08-06T04:58:30;6.80;;;2.50;;
9094;SDS011;4583;49.796;9.902;2023-08-06T05:08:31;2.17;;;2.00;;
9094;SDS011;4583;49.796;9.902;2023-08-06T05:18:33;4.07;;;2.40;;
9094;SDS011;4583;49.796;9.902;2023-08-06T05:28:35;5.40;;;2.30;;
9094;SDS011;4583;49.796;9.902;2023-08-06T05:38:37;2.90;;;1.93;;
9094;SDS011;4583;49.796;9.902;2023-08-06T05:48:39;3.63;;;1.70;;
9094;SDS011;4583;49.796;9.902;2023-08-06T05:58:40;3.83;;;1.83;;
9094;SDS011;4583;49.796;9.902;2023-08-06T06:08:42;5.33;;;1.90;;
9094;SDS011;4583;49.796;9.902;2023-08-06T06:18:44;3.30;;;2.10;;
9094;SDS011;4583;49.796;9.902;2023-08-06T06:28:45;13.40;;;8.50;;
9094;SDS011;4583;49.796;9.902;2023-08-06T06:38:47;4.33;;;1.97;;
9094;SDS011;4583;49.796;9.902;2023-08-06T06:48:50;2.40;;;1.80;;
9094;SDS011;4583;49.796;9.902;2023-08-06T06:58:52;2.50;;;1.30;;
9094;SDS011;4583;49.796;9.902;2023-08-06T07:08:53;2.63;;;1.50;;
9094;SDS011;4583;49.796;9.902;2023-08-06T07:18:55;2.20;;;1.53;;
9094;SDS011;4583;49.796;9.902;2023-08-06T07:28:57;4.03;;;1.30;;
9094;SDS011;4583;49.796;9.902;2023-08-06T07:38:59;1.47;;;1.00;;
9094;SDS011;4583;49.796;9.902;2023-08-06T07:49:00;2.20;;;1.07;;
9094;SDS011;4583;49.796;9.902;2023-08-06T07:59:02;1.23;;;0.90;;
9094;SDS011;4583;49.796;9.902;2023-08-06T08:09:04;0.80;;;0.80;;
9094;SDS011;4583;49.796;9.902;2023-08-06T08:19:06;1.60;;;0.83;;
9094;SDS011;4583;49.796;9.902;2023-08-06T08:29:08;2.60;;;0.90;;
9094;SDS011;4583;49.796;9.902;2023-08-06T08:39:10;0.90;;;0.90;;
9094;SDS011;4583;49.796;9.902;2023-08-06T08:49:11;1.83;;;1.33;;
9094;SDS011;4583;49.796;9.902;2023-08-06T08:59:13;1.50;;;1.00;;
9094;SDS011;4583;49.796;9.902;2023-08-06T09:09:16;0.90;;;0.73;;
9094;SDS011;4583;49.796;9.902;2023-08-06T09:19:25;1.50;;;1.03;;
9094;SDS011;4583;49.796;9.902;2023-08-06T09:29:28;1.98;;;1.55;;
9094;SDS011;4583;49.796;9.902;2023-08-06T09:39:33;1.60;;;1.27;;
9094;SDS011;4583;49.796;9.902;2023-08-06T09:59:37;1.00;;;0.90;;
9094;SDS011;4583;49.796;9.902;2023-08-06T10:09:41;3.20;;;1.47;;
9094;SDS011;4583;49.796;9.902;2023-08-06T10:19:43;0.53;;;0.53;;
9094;SDS011;4583;49.796;9.902;2023-08-06T10:29:45;1.83;;;0.90;;
9094;SDS011;4583;49.796;9.902;2023-08-06T10:39:50;0.60;;;0.60;;
9094;SDS011;4583;49.796;9.902;2023-08-06T10:49:53;3.63;;;0.90;;
9094;SDS011;4583;49.796;9.902;2023-08-06T10:59:55;1.27;;;1.00;;
9094;SDS011;4583;49.796;9.902;2023-08-06T11:10:16;0.93;;;0.83;;
9094;SDS011;4583;49.796;9.902;2023-08-06T11:20:17;0.70;;;0.63;;
9094;SDS011;4583;49.796;9.902;2023-08-06T11:30:23;0.50;;;0.50;;
9094;SDS011;4583;49.796;9.902;2023-08-06T11:40:24;3.20;;;0.53;;
9094;SDS011;4583;49.796;9.902;2023-08-06T11:50:26;0.50;;;0.50;;
9094;SDS011;4583;49.796;9.902;2023-08-06T12:00:29;1.40;;;1.13;;
9094;SDS011;4583;49.796;9.902;2023-08-06T12:10:31;0.60;;;0.60;;
9094;SDS011;4583;49.796;9.902;2023-08-06T12:20:34;0.80;;;0.50;;
9094;SDS011;4583;49.796;9.902;2023-08-06T12:30:35;0.93;;;0.60;;
9094;SDS011;4583;49.796;9.902;2023-08-06T12:40:37;1.13;;;0.50;;
9094;SDS011;4583;49.796;9.902;2023-08-06T12:50:42;0.60;;;0.60;;
9094;SDS011;4583;49.796;9.902;2023-08-06T13:00:44;0.50;;;0.50;;
9094;SDS011;4583;49.796;9.902;2023-08-06T13:10:46;0.47;;;0.47;;
9094;SDS011;4583;49.796;9.902;2023-08-06T13:20:47;2.33;;;0.50;;
9094;SDS011;4583;49.796;9.902;2023-08-06T13:30:53;0.77;;;0.47;;
9094;SDS011;4583;49.796;9.902;2023-08-06T13:40:55;0.50;;;0.50;;
9094;SDS011;4583;49.796;9.902;2023-08-06T13:50:57;1.90;;;0.50;;
9094;SDS011;4583;49.796;9.902;2023-08-06T14:00:59;0.60;;;0.60;;
9094;SDS011;4583;49.796;9.902;2023-08-06T14:11:01;0.93;;;0.60;;
9094;SDS011;4583;49.796;9.902;2023-08-06T14:21:02;1.03;;;0.80;;
9094;SDS011;4583;49.796;9.902;2023-08-06T14:31:04;0.83;;;0.80;;
9094;SDS011;4583;49.796;9.902;2023-08-06T14:41:06;1.17;;;0.70;;
9094;SDS011;4583;49.796;9.902;2023-08-06T14:51:08;1.23;;;0.73;;
9094;SDS011;4583;49.796;9.902;2023-08-06T15:01:10;2.23;;;0.70;;
9094;SDS011;4583;49.796;9.902;2023-08-06T15:11:13;0.70;;;0.70;;
9094;SDS011;4583;49.796;9.902;2023-08-06T15:21:15;0.90;;;0.90;;
9094;SDS011;4583;49.796;9.902;2023-08-06T15:31:20;1.40;;;0.60;;
9094;SDS011;4583;49.796;9.902;2023-08-06T15:41:23;1.47;;;0.97;;
9094;SDS011;4583;49.796;9.902;2023-08-06T15:51:24;1.93;;;0.60;;
9094;SDS011;4583;49.796;9.902;2023-08-06T16:01:26;0.83;;;0.80;;
9094;SDS011;4583;49.796;9.902;2023-08-06T16:11:28;1.03;;;0.80;;
9094;SDS011;4583;49.796;9.902;2023-08-06T16:21:30;0.97;;;0.60;;
9094;SDS011;4583;49.796;9.902;2023-08-06T16:31:32;0.80;;;0.63;;
9094;SDS011;4583;49.796;9.902;2023-08-06T16:41:35;1.60;;;1.20;;
9094;SDS011;4583;49.796;9.902;2023-08-06T16:51:37;2.90;;;0.60;;
9094;SDS011;4583;49.796;9.902;2023-08-06T17:01:39;1.90;;;0.67;;
9094;SDS011;4583;49.796;9.902;2023-08-06T17:11:41;1.03;;;0.90;;
9094;SDS011;4583;49.796;9.902;2023-08-06T17:21:43;2.37;;;0.70;;
9094;SDS011;4583;49.796;9.902;2023-08-06T17:31:44;1.20;;;0.80;;
9094;SDS011;4583;49.796;9.902;2023-08-06T17:41:46;1.77;;;0.80;;
9094;SDS011;4583;49.796;9.902;2023-08-06T17:51:48;9.13;;;0.80;;
9094;SDS011;4583;49.796;9.902;2023-08-06T18:01:50;0.60;;;0.60;;
9094;SDS011;4583;49.796;9.902;2023-08-06T18:11:52;0.80;;;0.80;;
9094;SDS011;4583;49.796;9.902;2023-08-06T18:21:54;0.80;;;0.80;;
9094;SDS011;4583;49.796;9.902;2023-08-06T18:31:55;0.60;;;0.60;;
9094;SDS011;4583;49.796;9.902;2023-08-06T18:41:57;2.47;;;1.17;;
9094;SDS011;4583;49.796;9.902;2023-08-06T18:51:59;1.33;;;0.70;;
9094;SDS011;4583;49.796;9.902;2023-08-06T19:02:01;0.70;;;0.70;;
9094;SDS011;4583;49.796;9.902;2023-08-06T19:12:04;0.60;;;0.60;;
9094;SDS011;4583;49.796;9.902;2023-08-06T19:22:06;1.87;;;0.97;;
9094;SDS011;4583;49.796;9.902;2023-08-06T19:32:08;1.70;;;0.90;;
9094;SDS011;4583;49.796;9.902;2023-08-06T19:42:11;0.80;;;0.80;;
9094;SDS011;4583;49.796;9.902;2023-08-06T19:52:12;0.93;;;0.80;;
9094;SDS011;4583;49.796;9.902;2023-08-06T20:02:14;0.73;;;0.60;;
9094;SDS011;4583;49.796;9.902;2023-08-06T20:12:16;1.70;;;0.70;;
9094;SDS011;4583;49.796;9.902;2023-08-06T20:22:18;3.17;;;0.60;;
9094;SDS011;4583;49.796;9.902;2023-08-06T20:32:20;0.90;;;0.70;;
9094;SDS011;4583;49.796;9.902;2023-08-06T20:42:22;0.87;;;0.70;;
9094;SDS011;4583;49.796;9.902;2023-08-06T20:52:23;0.67;;;0.60;;
9094;SDS011;4583;49.796;9.902;2023-08-06T21:02:25;0.93;;;0.70;;
9094;SDS011;4583;49.796;9.902;2023-08-06T21:12:27;0.50;;;0.50;;
9094;SDS011;4583;49.796;9.902;2023-08-06T21:22:30;0.80;;;0.50;;
9094;SDS011;4583;49.796;9.902;2023-08-06T21:32:31;2.93;;;0.63;;
9094;SDS011;4583;49.796;9.902;2023-08-06T21:42:33;0.57;;;0.53;;
9094;SDS011;4583;49.796;9.902;2023-08-06T21:52:35;0.50;;;0.50;;
9094;SDS011;4583;49.796;9.902;2023-08-06T22:02:36;3.30;;;0.70;;
9094;SDS011;4583;49.796;9.902;2023-08-06T22:12:39;0.50;;;0.50;;
9094;SDS011;4583;49.796;9.902;2023-08-06T22:22:40;0.60;;;0.60;;
9094;SDS011;4583;49.796;9.902;2023-08-06T22:32:42;2.00;;;0.60;;
9094;SDS011;4583;49.796;9.902;2023-08-06T22:42:44;0.40;;;0.40;;
9094;SDS011;4583;49.796;9.902;2023-08-06T22:52:46;0.53;;;0.50;;
9094;SDS011;4583;49.796;9.902;2023-08-06T23:02:48;0.47;;;0.40;;
9094;SDS011;4583;49.796;9.902;2023-08-06T23:13:07;1.87;;;0.53;;
9094;SDS011;4583;49.796;9.902;2023-08-06T23:23:09;0.50;;;0.50;;
9094;SDS011;4583;49.796;9.902;2023-08-06T23:33:11;1.47;;;0.70;;
9094;SDS011;4583;49.796;9.902;2023-08-06T23:43:13;0.90;;;0.70;;
9094;SDS011;4583;49.796;9.902;2023-08-06T23:53:15;1.17;;;0.63;;
